sensor_id;sensor_type;location;lat;lon;timestamp;pressure;altitude;pressure_sealevel;temperature;humidity
6345;BME280;3205;42.666;23.264;2023-02-01T00:01:31;94465.63;;;2.62;nan
6345;BME280;3205;42.666;23.264;2023-02-01T00:03:57;94465.13;;;2.60;nan
6345;BME280;3205;42.666;23.264;2023-02-01T00:06:23;94466.81;;;2.51;nan
6345;BME280;3205;42.666;23.264;2023-02-01T00:08:52;94476.00;;;2.67;nan
6345;BME280;3205;42.666;23.264;2023-02-01T00:11:18;94467.19;;;2.63;nan
6345;BME280;3205;42.666;23.264;2023-02-01T00:13:44;94462.66;;;2.69;nan
6345;BME280;3205;42.666;23.264;2023-02-01T00:16:12;94473.06;;;2.74;nan
6345;BME280;3205;42.666;23.264;2023-02-01T00:18:40;94472.56;;;2.72;nan
6345;BME280;3205;42.666;23.264;2023-02-01T00:21:06;94470.78;;;2.67;nan
6345;BME280;3205;42.666;23.264;2023-02-01T00:23:33;94470.22;;;2.70;nan
6345;BME280;3205;42.666;23.264;2023-02-01T00:26:00;94469.22;;;2.66;nan
6345;BME280;3205;42.666;23.264;2023-02-01T00:28:27;94466.91;;;2.65;nan
6345;BME280;3205;42.666;23.264;2023-02-01T00:30:56;94465.06;;;2.65;nan
6345;BME280;3205;42.666;23.264;2023-02-01T00:33:22;94473.31;;;2.54;nan
6345;BME280;3205;42.666;23.264;2023-02-01T00:35:49;94474.22;;;2.63;nan
6345;BME280;3205;42.666;23.264;2023-02-01T00:38:16;94469.69;;;2.50;nan
6345;BME280;3205;42.666;23.264;2023-02-01T00:40:42;94466.59;;;2.48;nan
6345;BME280;3205;42.666;23.264;2023-02-01T00:43:08;94465.41;;;2.40;nan
6345;BME280;3205;42.666;23.264;2023-02-01T00:45:35;94463.00;;;2.44;nan
6345;BME280;3205;42.666;23.264;2023-02-01T00:48:01;94461.81;;;2.36;nan
6345;BME280;3205;42.666;23.264;2023-02-01T00:50:27;94463.75;;;2.44;nan
6345;BME280;3205;42.666;23.264;2023-02-01T00:52:54;94454.13;;;2.45;nan
6345;BME280;3205;42.666;23.264;2023-02-01T00:55:21;94448.53;;;2.51;nan
6345;BME280;3205;42.666;23.264;2023-02-01T00:57:47;94459.41;;;2.58;nan
6345;BME280;3205;42.666;23.264;2023-02-01T01:00:14;94446.53;;;2.67;nan
6345;BME280;3205;42.666;23.264;2023-02-01T01:02:41;94450.19;;;2.66;nan
6345;BME280;3205;42.666;23.264;2023-02-01T01:05:08;94453.97;;;2.55;nan
6345;BME280;3205;42.666;23.264;2023-02-01T01:07:34;94451.03;;;2.61;nan
6345;BME280;3205;42.666;23.264;2023-02-01T01:10:00;94457.44;;;2.69;nan
6345;BME280;3205;42.666;23.264;2023-02-01T01:12:27;94449.69;;;2.64;nan
6345;BME280;3205;42.666;23.264;2023-02-01T01:14:53;94447.38;;;2.62;nan
6345;BME280;3205;42.666;23.264;2023-02-01T01:17:19;94446.78;;;2.65;nan
6345;BME280;3205;42.666;23.264;2023-02-01T01:19:45;94454.47;;;2.57;nan
6345;BME280;3205;42.666;23.264;2023-02-01T01:22:11;94453.44;;;2.58;nan
6345;BME280;3205;42.666;23.264;2023-02-01T01:24:37;94442.75;;;2.36;nan
6345;BME280;3205;42.666;23.264;2023-02-01T01:27:04;94442.53;;;2.32;nan
6345;BME280;3205;42.666;23.264;2023-02-01T01:29:30;94448.22;;;2.16;nan
6345;BME280;3205;42.666;23.264;2023-02-01T01:31:56;94442.63;;;2.04;nan
6345;BME280;3205;42.666;23.264;2023-02-01T01:34:22;94460.72;;;1.96;nan
6345;BME280;3205;42.666;23.264;2023-02-01T01:36:48;94455.38;;;1.82;nan
6345;BME280;3205;42.666;23.264;2023-02-01T01:39:14;94450.66;;;1.61;nan
6345;BME280;3205;42.666;23.264;2023-02-01T01:41:41;94455.06;;;1.60;nan
6345;BME280;3205;42.666;23.264;2023-02-01T01:47:07;94464.94;;;1.63;nan
6345;BME280;3205;42.666;23.264;2023-02-01T01:49:34;94463.97;;;1.54;nan
6345;BME280;3205;42.666;23.264;2023-02-01T01:52:02;94462.25;;;1.45;nan
6345;BME280;3205;42.666;23.264;2023-02-01T01:54:31;94460.16;;;1.47;nan
6345;BME280;3205;42.666;23.264;2023-02-01T01:57:01;94467.78;;;1.39;nan
6345;BME280;3205;42.666;23.264;2023-02-01T01:59:28;94459.53;;;1.27;nan
6345;BME280;3205;42.666;23.264;2023-02-01T02:01:55;94453.63;;;1.21;nan
6345;BME280;3205;42.666;23.264;2023-02-01T02:04:22;94464.59;;;1.13;nan
6345;BME280;3205;42.666;23.264;2023-02-01T02:06:53;94459.13;;;1.15;nan
6345;BME280;3205;42.666;23.264;2023-02-01T02:09:21;94451.88;;;1.07;nan
6345;BME280;3205;42.666;23.264;2023-02-01T02:11:48;94455.00;;;1.09;nan
6345;BME280;3205;42.666;23.264;2023-02-01T02:14:17;94448.81;;;1.00;nan
6345;BME280;3205;42.666;23.264;2023-02-01T02:16:55;94451.69;;;0.98;nan
6345;BME280;3205;42.666;23.264;2023-02-01T02:22:40;94449.09;;;0.98;nan
6345;BME280;3205;42.666;23.264;2023-02-01T02:28:04;94438.75;;;0.88;nan
6345;BME280;3205;42.666;23.264;2023-02-01T02:30:43;94454.59;;;0.92;nan
6345;BME280;3205;42.666;23.264;2023-02-01T02:33:47;94451.97;;;0.97;nan
6345;BME280;3205;42.666;23.264;2023-02-01T02:36:24;94462.06;;;1.03;nan
6345;BME280;3205;42.666;23.264;2023-02-01T02:39:03;94464.03;;;1.21;nan
6345;BME280;3205;42.666;23.264;2023-02-01T02:41:39;94457.41;;;1.34;nan
6345;BME280;3205;42.666;23.264;2023-02-01T02:44:33;94457.09;;;1.40;nan
6345;BME280;3205;42.666;23.264;2023-02-01T02:47:31;94447.88;;;1.52;nan
6345;BME280;3205;42.666;23.264;2023-02-01T02:50:08;94449.59;;;1.62;nan
6345;BME280;3205;42.666;23.264;2023-02-01T02:52:57;94442.59;;;1.57;nan
6345;BME280;3205;42.666;23.264;2023-02-01T02:55:45;94446.78;;;1.58;nan
6345;BME280;3205;42.666;23.264;2023-02-01T02:58:12;94455.13;;;1.55;nan
6345;BME280;3205;42.666;23.264;2023-02-01T03:00:58;94449.69;;;1.52;nan
6345;BME280;3205;42.666;23.264;2023-02-01T03:03:43;94451.13;;;1.63;nan
6345;BME280;3205;42.666;23.264;2023-02-01T03:06:34;94460.19;;;1.70;nan
6345;BME280;3205;42.666;23.264;2023-02-01T03:09:04;94468.00;;;1.70;nan
6345;BME280;3205;42.666;23.264;2023-02-01T03:11:33;94468.78;;;1.71;nan
6345;BME280;3205;42.666;23.264;2023-02-01T03:14:16;94476.06;;;1.74;nan
6345;BME280;3205;42.666;23.264;2023-02-01T03:16:48;94475.81;;;1.70;nan
6345;BME280;3205;42.666;23.264;2023-02-01T03:19:19;94484.84;;;1.78;nan
6345;BME280;3205;42.666;23.264;2023-02-01T03:21:50;94487.97;;;1.80;nan
6345;BME280;3205;42.666;23.264;2023-02-01T03:24:23;94483.41;;;1.67;nan
6345;BME280;3205;42.666;23.264;2023-02-01T03:27:02;94475.59;;;1.67;nan
6345;BME280;3205;42.666;23.264;2023-02-01T03:29:37;94479.69;;;1.73;nan
6345;BME280;3205;42.666;23.264;2023-02-01T03:32:04;94481.63;;;1.62;nan
6345;BME280;3205;42.666;23.264;2023-02-01T03:34:30;94472.75;;;1.63;nan
6345;BME280;3205;42.666;23.264;2023-02-01T03:37:00;94467.72;;;1.72;nan
6345;BME280;3205;42.666;23.264;2023-02-01T03:39:32;94473.03;;;1.62;nan
6345;BME280;3205;42.666;23.264;2023-02-01T03:42:02;94470.75;;;1.55;nan
6345;BME280;3205;42.666;23.264;2023-02-01T03:44:33;94466.09;;;1.52;nan
6345;BME280;3205;42.666;23.264;2023-02-01T03:47:04;94472.75;;;1.63;nan
6345;BME280;3205;42.666;23.264;2023-02-01T03:49:34;94471.75;;;1.59;nan
6345;BME280;3205;42.666;23.264;2023-02-01T03:52:02;94464.38;;;1.66;nan
6345;BME280;3205;42.666;23.264;2023-02-01T03:54:31;94468.47;;;1.77;nan
6345;BME280;3205;42.666;23.264;2023-02-01T03:57:01;94475.09;;;1.88;nan
6345;BME280;3205;42.666;23.264;2023-02-01T03:59:30;94481.44;;;1.82;nan
6345;BME280;3205;42.666;23.264;2023-02-01T04:01:56;94479.41;;;1.74;nan
6345;BME280;3205;42.666;23.264;2023-02-01T04:04:22;94488.25;;;1.78;nan
6345;BME280;3205;42.666;23.264;2023-02-01T04:06:50;94489.25;;;1.82;nan
6345;BME280;3205;42.666;23.264;2023-02-01T04:09:17;94483.22;;;1.87;nan
6345;BME280;3205;42.666;23.264;2023-02-01T04:11:43;94487.03;;;1.94;nan
6345;BME280;3205;42.666;23.264;2023-02-01T04:14:09;94485.16;;;2.00;nan
6345;BME280;3205;42.666;23.264;2023-02-01T04:16:36;94485.59;;;2.07;nan
6345;BME280;3205;42.666;23.264;2023-02-01T04:19:02;94481.94;;;2.08;nan
6345;BME280;3205;42.666;23.264;2023-02-01T04:21:28;94486.88;;;2.09;nan
6345;BME280;3205;42.666;23.264;2023-02-01T04:23:55;94486.88;;;2.09;nan
6345;BME280;3205;42.666;23.264;2023-02-01T04:26:22;94479.00;;;2.14;nan
6345;BME280;3205;42.666;23.264;2023-02-01T04:28:48;94489.41;;;2.14;nan
6345;BME280;3205;42.666;23.264;2023-02-01T04:31:14;94494.09;;;2.17;nan
6345;BME280;3205;42.666;23.264;2023-02-01T04:33:40;94484.22;;;2.14;nan
6345;BME280;3205;42.666;23.264;2023-02-01T04:36:06;94480.28;;;2.17;nan
6345;BME280;3205;42.666;23.264;2023-02-01T04:38:32;94481.81;;;2.17;nan
6345;BME280;3205;42.666;23.264;2023-02-01T04:40:59;94472.13;;;2.23;nan
6345;BME280;3205;42.666;23.264;2023-02-01T04:43:26;94471.00;;;2.29;nan
6345;BME280;3205;42.666;23.264;2023-02-01T04:45:52;94482.91;;;2.17;nan
6345;BME280;3205;42.666;23.264;2023-02-01T04:48:19;94484.66;;;2.21;nan
6345;BME280;3205;42.666;23.264;2023-02-01T04:50:47;94489.53;;;2.27;nan
6345;BME280;3205;42.666;23.264;2023-02-01T04:53:14;94486.22;;;2.22;nan
6345;BME280;3205;42.666;23.264;2023-02-01T04:55:40;94484.25;;;2.32;nan
6345;BME280;3205;42.666;23.264;2023-02-01T04:58:06;94482.88;;;2.40;nan
6345;BME280;3205;42.666;23.264;2023-02-01T05:00:33;94497.03;;;2.34;nan
6345;BME280;3205;42.666;23.264;2023-02-01T05:03:00;94488.66;;;2.37;nan
6345;BME280;3205;42.666;23.264;2023-02-01T05:05:26;94493.88;;;2.37;nan
6345;BME280;3205;42.666;23.264;2023-02-01T05:07:52;94507.41;;;2.39;nan
6345;BME280;3205;42.666;23.264;2023-02-01T05:10:19;94507.63;;;2.42;nan
6345;BME280;3205;42.666;23.264;2023-02-01T05:12:45;94507.88;;;2.41;nan
6345;BME280;3205;42.666;23.264;2023-02-01T05:15:30;94511.72;;;2.48;nan
6345;BME280;3205;42.666;23.264;2023-02-01T05:17:57;94513.66;;;2.61;nan
6345;BME280;3205;42.666;23.264;2023-02-01T05:20:24;94514.50;;;2.57;nan
6345;BME280;3205;42.666;23.264;2023-02-01T05:22:50;94515.50;;;2.61;nan
6345;BME280;3205;42.666;23.264;2023-02-01T05:25:17;94507.72;;;2.56;nan
6345;BME280;3205;42.666;23.264;2023-02-01T05:27:43;94508.66;;;2.65;nan
6345;BME280;3205;42.666;23.264;2023-02-01T05:30:10;94501.97;;;2.77;nan
6345;BME280;3205;42.666;23.264;2023-02-01T05:32:36;94509.91;;;2.67;nan
6345;BME280;3205;42.666;23.264;2023-02-01T05:35:04;94512.25;;;2.69;nan
6345;BME280;3205;42.666;23.264;2023-02-01T05:37:30;94514.09;;;2.68;nan
6345;BME280;3205;42.666;23.264;2023-02-01T05:39:56;94506.03;;;2.65;nan
6345;BME280;3205;42.666;23.264;2023-02-01T05:42:22;94500.69;;;2.75;nan
6345;BME280;3205;42.666;23.264;2023-02-01T05:44:48;94517.34;;;2.79;nan
6345;BME280;3205;42.666;23.264;2023-02-01T05:47:14;94515.06;;;2.72;nan
6345;BME280;3205;42.666;23.264;2023-02-01T05:49:41;94517.91;;;2.76;nan
6345;BME280;3205;42.666;23.264;2023-02-01T05:52:07;94511.53;;;2.82;nan
6345;BME280;3205;42.666;23.264;2023-02-01T05:54:33;94511.84;;;2.80;nan
6345;BME280;3205;42.666;23.264;2023-02-01T05:57:00;94511.00;;;2.85;nan
6345;BME280;3205;42.666;23.264;2023-02-01T05:59:26;94512.47;;;2.91;nan
6345;BME280;3205;42.666;23.264;2023-02-01T06:01:52;94528.44;;;2.89;nan
6345;BME280;3205;42.666;23.264;2023-02-01T06:04:18;94521.50;;;2.80;nan
6345;BME280;3205;42.666;23.264;2023-02-01T06:06:44;94520.72;;;2.79;nan
6345;BME280;3205;42.666;23.264;2023-02-01T06:09:11;94519.97;;;2.79;nan
6345;BME280;3205;42.666;23.264;2023-02-01T06:11:39;94524.13;;;2.80;nan
6345;BME280;3205;42.666;23.264;2023-02-01T06:14:05;94519.38;;;2.82;nan
6345;BME280;3205;42.666;23.264;2023-02-01T06:16:33;94524.88;;;2.80;nan
6345;BME280;3205;42.666;23.264;2023-02-01T06:18:59;94520.03;;;2.74;nan
6345;BME280;3205;42.666;23.264;2023-02-01T06:21:25;94534.59;;;2.75;nan
6345;BME280;3205;42.666;23.264;2023-02-01T06:23:52;94518.75;;;2.90;nan
6345;BME280;3205;42.666;23.264;2023-02-01T06:26:18;94533.56;;;2.94;nan
6345;BME280;3205;42.666;23.264;2023-02-01T06:28:45;94527.31;;;2.95;nan
6345;BME280;3205;42.666;23.264;2023-02-01T06:31:11;94519.75;;;2.93;nan
6345;BME280;3205;42.666;23.264;2023-02-01T06:33:38;94521.88;;;3.10;nan
6345;BME280;3205;42.666;23.264;2023-02-01T06:36:06;94527.03;;;3.15;nan
6345;BME280;3205;42.666;23.264;2023-02-01T06:38:33;94529.94;;;3.13;nan
6345;BME280;3205;42.666;23.264;2023-02-01T06:41:00;94534.00;;;3.19;nan
6345;BME280;3205;42.666;23.264;2023-02-01T06:43:28;94538.09;;;3.25;nan
6345;BME280;3205;42.666;23.264;2023-02-01T06:45:59;94536.84;;;3.23;nan
6345;BME280;3205;42.666;23.264;2023-02-01T06:48:25;94545.38;;;3.28;nan
6345;BME280;3205;42.666;23.264;2023-02-01T06:50:52;94546.88;;;3.34;nan
6345;BME280;3205;42.666;23.264;2023-02-01T06:53:18;94553.00;;;3.25;nan
6345;BME280;3205;42.666;23.264;2023-02-01T06:55:51;94548.25;;;3.45;nan
6345;BME280;3205;42.666;23.264;2023-02-01T06:58:17;94548.25;;;3.45;nan
6345;BME280;3205;42.666;23.264;2023-02-01T07:00:44;94560.38;;;3.55;nan
6345;BME280;3205;42.666;23.264;2023-02-01T07:03:10;94565.13;;;3.53;nan
6345;BME280;3205;42.666;23.264;2023-02-01T07:05:36;94575.50;;;3.58;nan
6345;BME280;3205;42.666;23.264;2023-02-01T07:08:03;94579.22;;;3.70;nan
6345;BME280;3205;42.666;23.264;2023-02-01T07:10:29;94582.13;;;3.68;nan
6345;BME280;3205;42.666;23.264;2023-02-01T07:12:56;94589.63;;;3.75;nan
6345;BME280;3205;42.666;23.264;2023-02-01T07:15:22;94590.03;;;3.82;nan
6345;BME280;3205;42.666;23.264;2023-02-01T07:17:49;94590.69;;;3.74;nan
6345;BME280;3205;42.666;23.264;2023-02-01T07:20:16;94586.59;;;3.68;nan
6345;BME280;3205;42.666;23.264;2023-02-01T07:22:42;94592.16;;;3.80;nan
6345;BME280;3205;42.666;23.264;2023-02-01T07:25:09;94591.72;;;3.91;nan
6345;BME280;3205;42.666;23.264;2023-02-01T07:27:35;94592.19;;;3.93;nan
6345;BME280;3205;42.666;23.264;2023-02-01T07:30:02;94580.75;;;3.89;nan
6345;BME280;3205;42.666;23.264;2023-02-01T07:32:29;94595.50;;;3.99;nan
6345;BME280;3205;42.666;23.264;2023-02-01T07:34:56;94584.81;;;4.14;nan
6345;BME280;3205;42.666;23.264;2023-02-01T07:37:22;94587.81;;;4.21;nan
6345;BME280;3205;42.666;23.264;2023-02-01T07:39:49;94595.06;;;4.10;nan
6345;BME280;3205;42.666;23.264;2023-02-01T07:42:15;94595.16;;;4.19;nan
6345;BME280;3205;42.666;23.264;2023-02-01T07:44:42;94594.91;;;4.34;nan
6345;BME280;3205;42.666;23.264;2023-02-01T07:47:08;94593.06;;;4.34;nan
6345;BME280;3205;42.666;23.264;2023-02-01T07:49:34;94590.19;;;4.36;nan
6345;BME280;3205;42.666;23.264;2023-02-01T07:52:01;94592.78;;;4.49;nan
6345;BME280;3205;42.666;23.264;2023-02-01T07:54:28;94595.53;;;4.57;nan
6345;BME280;3205;42.666;23.264;2023-02-01T07:56:54;94596.00;;;4.59;nan
6345;BME280;3205;42.666;23.264;2023-02-01T07:59:20;94594.78;;;4.70;nan
6345;BME280;3205;42.666;23.264;2023-02-01T08:01:46;94616.97;;;4.73;nan
6345;BME280;3205;42.666;23.264;2023-02-01T08:04:13;94617.84;;;4.82;nan
6345;BME280;3205;42.666;23.264;2023-02-01T08:06:39;94616.88;;;4.78;nan
6345;BME280;3205;42.666;23.264;2023-02-01T08:09:07;94623.75;;;4.87;nan
6345;BME280;3205;42.666;23.264;2023-02-01T08:11:33;94631.63;;;4.87;nan
6345;BME280;3205;42.666;23.264;2023-02-01T08:14:01;94616.09;;;4.91;nan
6345;BME280;3205;42.666;23.264;2023-02-01T08:16:28;94616.19;;;4.99;nan
6345;BME280;3205;42.666;23.264;2023-02-01T08:18:54;94618.72;;;4.91;nan
6345;BME280;3205;42.666;23.264;2023-02-01T08:21:22;94600.09;;;4.79;nan
6345;BME280;3205;42.666;23.264;2023-02-01T08:23:49;94607.94;;;4.92;nan
6345;BME280;3205;42.666;23.264;2023-02-01T08:26:17;94604.53;;;5.18;nan
6345;BME280;3205;42.666;23.264;2023-02-01T08:28:46;94608.69;;;5.33;nan
6345;BME280;3205;42.666;23.264;2023-02-01T08:31:15;94614.03;;;5.28;nan
6345;BME280;3205;42.666;23.264;2023-02-01T08:33:42;94603.34;;;5.38;nan
6345;BME280;3205;42.666;23.264;2023-02-01T08:36:10;94616.41;;;5.51;nan
6345;BME280;3205;42.666;23.264;2023-02-01T08:38:38;94613.41;;;5.58;nan
6345;BME280;3205;42.666;23.264;2023-02-01T08:41:08;94612.47;;;5.76;nan
6345;BME280;3205;42.666;23.264;2023-02-01T08:43:35;94612.84;;;5.83;nan
6345;BME280;3205;42.666;23.264;2023-02-01T08:46:02;94622.88;;;5.81;nan
6345;BME280;3205;42.666;23.264;2023-02-01T08:48:28;94613.47;;;5.80;nan
6345;BME280;3205;42.666;23.264;2023-02-01T08:50:55;94605.91;;;6.00;nan
6345;BME280;3205;42.666;23.264;2023-02-01T08:53:21;94599.13;;;6.29;nan
6345;BME280;3205;42.666;23.264;2023-02-01T08:55:47;94601.81;;;6.38;nan
6345;BME280;3205;42.666;23.264;2023-02-01T08:58:14;94601.63;;;7.93;nan
6345;BME280;3205;42.666;23.264;2023-02-01T09:00:43;94605.31;;;10.68;nan
6345;BME280;3205;42.666;23.264;2023-02-01T09:03:10;94607.72;;;13.13;nan
6345;BME280;3205;42.666;23.264;2023-02-01T09:05:37;94596.78;;;14.33;nan
6345;BME280;3205;42.666;23.264;2023-02-01T09:08:04;94597.34;;;15.24;nan
6345;BME280;3205;42.666;23.264;2023-02-01T09:10:30;94607.97;;;16.50;nan
6345;BME280;3205;42.666;23.264;2023-02-01T09:12:57;94616.22;;;15.60;nan
6345;BME280;3205;42.666;23.264;2023-02-01T09:15:23;94610.53;;;13.51;nan
6345;BME280;3205;42.666;23.264;2023-02-01T09:17:49;94610.63;;;12.38;nan
6345;BME280;3205;42.666;23.264;2023-02-01T09:20:16;94619.16;;;11.92;nan
6345;BME280;3205;42.666;23.264;2023-02-01T09:22:42;94623.66;;;12.86;nan
6345;BME280;3205;42.666;23.264;2023-02-01T09:25:08;94624.59;;;13.51;nan
6345;BME280;3205;42.666;23.264;2023-02-01T09:27:35;94625.94;;;12.72;nan
6345;BME280;3205;42.666;23.264;2023-02-01T09:30:01;94605.09;;;12.43;nan
6345;BME280;3205;42.666;23.264;2023-02-01T09:32:27;94613.25;;;11.48;nan
6345;BME280;3205;42.666;23.264;2023-02-01T09:34:54;94618.25;;;10.81;nan
6345;BME280;3205;42.666;23.264;2023-02-01T09:37:20;94607.44;;;10.10;nan
6345;BME280;3205;42.666;23.264;2023-02-01T09:39:47;94599.09;;;10.96;nan
6345;BME280;3205;42.666;23.264;2023-02-01T09:42:21;94597.34;;;11.12;nan
6345;BME280;3205;42.666;23.264;2023-02-01T09:45:02;94588.50;;;12.19;nan
6345;BME280;3205;42.666;23.264;2023-02-01T09:47:31;94576.88;;;13.55;nan
6345;BME280;3205;42.666;23.264;2023-02-01T09:50:02;94576.13;;;13.73;nan
6345;BME280;3205;42.666;23.264;2023-02-01T09:52:36;94574.84;;;13.18;nan
6345;BME280;3205;42.666;23.264;2023-02-01T09:55:11;94575.00;;;13.09;nan
6345;BME280;3205;42.666;23.264;2023-02-01T09:57:45;94562.66;;;13.32;nan
6345;BME280;3205;42.666;23.264;2023-02-01T10:00:19;94563.28;;;12.95;nan
6345;BME280;3205;42.666;23.264;2023-02-01T10:02:49;94568.94;;;12.51;nan
6345;BME280;3205;42.666;23.264;2023-02-01T10:05:25;94570.38;;;12.48;nan
6345;BME280;3205;42.666;23.264;2023-02-01T10:08:01;94569.22;;;12.06;nan
6345;BME280;3205;42.666;23.264;2023-02-01T10:10:36;94562.78;;;12.19;nan
6345;BME280;3205;42.666;23.264;2023-02-01T10:13:23;94559.31;;;12.03;nan
6345;BME280;3205;42.666;23.264;2023-02-01T10:16:04;94548.88;;;11.83;nan
6345;BME280;3205;42.666;23.264;2023-02-01T10:21:53;94548.72;;;10.81;nan
6345;BME280;3205;42.666;23.264;2023-02-01T10:27:18;94552.38;;;10.88;nan
6345;BME280;3205;42.666;23.264;2023-02-01T10:29:48;94549.44;;;10.45;nan
6345;BME280;3205;42.666;23.264;2023-02-01T10:32:20;94544.03;;;10.42;nan
6345;BME280;3205;42.666;23.264;2023-02-01T10:34:52;94537.44;;;10.48;nan
6345;BME280;3205;42.666;23.264;2023-02-01T10:37:27;94535.16;;;10.14;nan
6345;BME280;3205;42.666;23.264;2023-02-01T10:39:55;94535.75;;;9.99;nan
6345;BME280;3205;42.666;23.264;2023-02-01T10:42:26;94537.47;;;9.95;nan
6345;BME280;3205;42.666;23.264;2023-02-01T10:44:54;94532.94;;;9.96;nan
6345;BME280;3205;42.666;23.264;2023-02-01T10:47:21;94531.69;;;10.02;nan
6345;BME280;3205;42.666;23.264;2023-02-01T10:49:54;94528.28;;;10.34;nan
6345;BME280;3205;42.666;23.264;2023-02-01T10:52:29;94543.53;;;10.60;nan
6345;BME280;3205;42.666;23.264;2023-02-01T10:55:27;94541.34;;;10.86;nan
6345;BME280;3205;42.666;23.264;2023-02-01T10:57:56;94525.91;;;10.76;nan
6345;BME280;3205;42.666;23.264;2023-02-01T11:00:23;94533.84;;;10.64;nan
6345;BME280;3205;42.666;23.264;2023-02-01T11:02:50;94534.84;;;10.96;nan
6345;BME280;3205;42.666;23.264;2023-02-01T11:05:17;94528.91;;;11.10;nan
6345;BME280;3205;42.666;23.264;2023-02-01T11:07:48;94537.50;;;11.07;nan
6345;BME280;3205;42.666;23.264;2023-02-01T11:10:36;94543.06;;;10.58;nan
6345;BME280;3205;42.666;23.264;2023-02-01T11:13:03;94547.09;;;10.88;nan
6345;BME280;3205;42.666;23.264;2023-02-01T11:15:32;94533.38;;;10.50;nan
6345;BME280;3205;42.666;23.264;2023-02-01T11:18:14;94525.53;;;10.30;nan
6345;BME280;3205;42.666;23.264;2023-02-01T11:20:44;94516.25;;;9.71;nan
6345;BME280;3205;42.666;23.264;2023-02-01T11:23:17;94513.50;;;9.48;nan
6345;BME280;3205;42.666;23.264;2023-02-01T11:25:49;94516.66;;;9.61;nan
6345;BME280;3205;42.666;23.264;2023-02-01T11:28:17;94516.88;;;9.48;nan
6345;BME280;3205;42.666;23.264;2023-02-01T11:30:45;94509.22;;;9.14;nan
6345;BME280;3205;42.666;23.264;2023-02-01T11:33:15;94511.50;;;8.95;nan
6345;BME280;3205;42.666;23.264;2023-02-01T11:35:42;94518.94;;;8.93;nan
6345;BME280;3205;42.666;23.264;2023-02-01T11:38:20;94514.22;;;9.07;nan
6345;BME280;3205;42.666;23.264;2023-02-01T11:40:47;94513.38;;;8.95;nan
6345;BME280;3205;42.666;23.264;2023-02-01T11:43:16;94509.94;;;8.94;nan
6345;BME280;3205;42.666;23.264;2023-02-01T11:45:54;94502.56;;;8.88;nan
6345;BME280;3205;42.666;23.264;2023-02-01T11:48:24;94500.09;;;8.54;nan
6345;BME280;3205;42.666;23.264;2023-02-01T11:50:57;94477.31;;;8.50;nan
6345;BME280;3205;42.666;23.264;2023-02-01T11:53:42;94481.13;;;8.61;nan
6345;BME280;3205;42.666;23.264;2023-02-01T11:56:16;94474.63;;;8.58;nan
6345;BME280;3205;42.666;23.264;2023-02-01T11:59:04;94471.25;;;8.58;nan
6345;BME280;3205;42.666;23.264;2023-02-01T12:01:45;94478.44;;;8.69;nan
6345;BME280;3205;42.666;23.264;2023-02-01T12:07:20;94464.19;;;8.70;nan
6345;BME280;3205;42.666;23.264;2023-02-01T12:10:01;94474.59;;;8.67;nan
6345;BME280;3205;42.666;23.264;2023-02-01T12:12:36;94469.69;;;8.57;nan
6345;BME280;3205;42.666;23.264;2023-02-01T12:15:26;94468.34;;;8.42;nan
6345;BME280;3205;42.666;23.264;2023-02-01T12:18:15;94460.50;;;8.34;nan
6345;BME280;3205;42.666;23.264;2023-02-01T12:21:03;94471.34;;;8.32;nan
6345;BME280;3205;42.666;23.264;2023-02-01T12:23:41;94473.69;;;8.25;nan
6345;BME280;3205;42.666;23.264;2023-02-01T12:26:32;94453.09;;;8.10;nan
6345;BME280;3205;42.666;23.264;2023-02-01T12:29:29;94460.72;;;8.04;nan
6345;BME280;3205;42.666;23.264;2023-02-01T12:32:09;94461.47;;;8.12;nan
6345;BME280;3205;42.666;23.264;2023-02-01T12:34:58;94459.59;;;8.13;nan
6345;BME280;3205;42.666;23.264;2023-02-01T12:37:39;94449.09;;;8.05;nan
6345;BME280;3205;42.666;23.264;2023-02-01T12:40:19;94461.47;;;8.04;nan
6345;BME280;3205;42.666;23.264;2023-02-01T12:42:54;94465.06;;;8.00;nan
6345;BME280;3205;42.666;23.264;2023-02-01T12:45:28;94468.16;;;8.02;nan
6345;BME280;3205;42.666;23.264;2023-02-01T12:48:00;94462.41;;;8.08;nan
6345;BME280;3205;42.666;23.264;2023-02-01T12:50:35;94469.84;;;8.06;nan
6345;BME280;3205;42.666;23.264;2023-02-01T12:53:09;94459.00;;;8.16;nan
6345;BME280;3205;42.666;23.264;2023-02-01T12:55:42;94477.31;;;7.96;nan
6345;BME280;3205;42.666;23.264;2023-02-01T12:58:17;94479.28;;;8.07;nan
6345;BME280;3205;42.666;23.264;2023-02-01T13:00:49;94481.44;;;8.05;nan
6345;BME280;3205;42.666;23.264;2023-02-01T13:03:28;94490.59;;;8.16;nan
6345;BME280;3205;42.666;23.264;2023-02-01T13:06:01;94482.69;;;8.07;nan
6345;BME280;3205;42.666;23.264;2023-02-01T13:08:37;94489.69;;;7.95;nan
6345;BME280;3205;42.666;23.264;2023-02-01T13:11:09;94476.25;;;7.88;nan
6345;BME280;3205;42.666;23.264;2023-02-01T13:13:46;94472.22;;;7.82;nan
6345;BME280;3205;42.666;23.264;2023-02-01T13:16:17;94474.53;;;7.84;nan
6345;BME280;3205;42.666;23.264;2023-02-01T13:18:50;94473.16;;;7.78;nan
6345;BME280;3205;42.666;23.264;2023-02-01T13:21:23;94471.59;;;7.85;nan
6345;BME280;3205;42.666;23.264;2023-02-01T13:23:50;94479.50;;;7.85;nan
6345;BME280;3205;42.666;23.264;2023-02-01T13:26:18;94470.50;;;7.86;nan
6345;BME280;3205;42.666;23.264;2023-02-01T13:28:47;94473.28;;;7.90;nan
6345;BME280;3205;42.666;23.264;2023-02-01T13:31:27;94470.03;;;7.93;nan
6345;BME280;3205;42.666;23.264;2023-02-01T13:34:22;94460.75;;;7.95;nan
6345;BME280;3205;42.666;23.264;2023-02-01T13:37:03;94459.38;;;7.89;nan
6345;BME280;3205;42.666;23.264;2023-02-01T13:39:47;94463.09;;;7.88;nan
6345;BME280;3205;42.666;23.264;2023-02-01T13:42:18;94456.75;;;7.81;nan
6345;BME280;3205;42.666;23.264;2023-02-01T13:44:49;94452.38;;;7.93;nan
6345;BME280;3205;42.666;23.264;2023-02-01T13:47:24;94454.69;;;7.95;nan
6345;BME280;3205;42.666;23.264;2023-02-01T13:49:51;94461.81;;;7.94;nan
6345;BME280;3205;42.666;23.264;2023-02-01T13:52:26;94457.63;;;8.02;nan
6345;BME280;3205;42.666;23.264;2023-02-01T13:55:02;94467.09;;;7.94;nan
6345;BME280;3205;42.666;23.264;2023-02-01T13:57:35;94463.50;;;8.07;nan
6345;BME280;3205;42.666;23.264;2023-02-01T14:00:08;94469.69;;;8.19;nan
6345;BME280;3205;42.666;23.264;2023-02-01T14:03:16;94475.34;;;8.38;nan
6345;BME280;3205;42.666;23.264;2023-02-01T14:06:00;94482.75;;;8.45;nan
6345;BME280;3205;42.666;23.264;2023-02-01T14:08:44;94470.84;;;8.39;nan
6345;BME280;3205;42.666;23.264;2023-02-01T14:11:38;94478.13;;;8.42;nan
6345;BME280;3205;42.666;23.264;2023-02-01T14:17:35;94475.00;;;8.77;nan
6345;BME280;3205;42.666;23.264;2023-02-01T14:23:27;94480.22;;;8.57;nan
6345;BME280;3205;42.666;23.264;2023-02-01T14:26:23;94465.19;;;8.57;nan